sensor_id;sensor_type;location;lat;lon;timestamp;P1;durP1;ratioP1;P2;durP2;ratioP2
57325;SDS011;43161;50.950;18.224;2023-09-08T00:01:49;21.90;;;12.80;;
57325;SDS011;43161;50.950;18.224;2023-09-08T00:04:15;21.50;;;12.80;;
57325;SDS011;43161;50.950;18.224;2023-09-08T00:06:40;21.60;;;13.10;;
57325;SDS011;43161;50.950;18.224;2023-09-08T00:09:07;20.10;;;13.50;;
57325;SDS011;43161;50.950;18.224;2023-09-08T00:11:33;20.10;;;13.50;;
57325;SDS011;43161;50.950;18.224;2023-09-08T00:13:59;23.30;;;14.00;;
57325;SDS011;43161;50.950;18.224;2023-09-08T00:16:24;21.30;;;14.00;;
57325;SDS011;43161;50.950;18.224;2023-09-08T00:18:50;22.30;;;14.20;;
57325;SDS011;43161;50.950;18.224;2023-09-08T00:21:16;21.20;;;13.60;;
57325;SDS011;43161;50.950;18.224;2023-09-08T00:23:41;21.00;;;13.60;;
57325;SDS011;43161;50.950;18.224;2023-09-08T00:26:07;21.70;;;13.50;;
57325;SDS011;43161;50.950;18.224;2023-09-08T00:28:33;23.00;;;14.10;;
57325;SDS011;43161;50.950;18.224;2023-09-08T00:30:58;23.60;;;13.20;;
57325;SDS011;43161;50.950;18.224;2023-09-08T00:33:25;21.40;;;13.60;;
57325;SDS011;43161;50.950;18.224;2023-09-08T00:35:51;25.70;;;14.70;;
57325;SDS011;43161;50.950;18.224;2023-09-08T00:38:19;24.60;;;14.10;;
57325;SDS011;43161;50.950;18.224;2023-09-08T00:40:44;22.50;;;13.80;;
57325;SDS011;43161;50.950;18.224;2023-09-08T00:43:11;22.40;;;14.30;;
57325;SDS011;43161;50.950;18.224;2023-09-08T00:45:38;20.80;;;14.10;;
57325;SDS011;43161;50.950;18.224;2023-09-08T00:48:06;24.10;;;15.10;;
57325;SDS011;43161;50.950;18.224;2023-09-08T00:50:32;21.90;;;14.30;;
57325;SDS011;43161;50.950;18.224;2023-09-08T00:52:58;25.80;;;15.30;;
57325;SDS011;43161;50.950;18.224;2023-09-08T00:55:23;24.20;;;14.80;;
57325;SDS011;43161;50.950;18.224;2023-09-08T00:57:50;24.10;;;14.60;;
57325;SDS011;43161;50.950;18.224;2023-09-08T01:00:15;22.00;;;13.90;;
57325;SDS011;43161;50.950;18.224;2023-09-08T01:02:41;21.30;;;14.20;;
57325;SDS011;43161;50.950;18.224;2023-09-08T01:05:10;23.30;;;13.90;;
57325;SDS011;43161;50.950;18.224;2023-09-08T01:07:36;20.20;;;13.60;;
57325;SDS011;43161;50.950;18.224;2023-09-08T01:10:02;21.00;;;13.80;;
57325;SDS011;43161;50.950;18.224;2023-09-08T01:12:31;21.70;;;13.80;;
57325;SDS011;43161;50.950;18.224;2023-09-08T01:14:58;25.30;;;14.70;;
57325;SDS011;43161;50.950;18.224;2023-09-08T01:17:24;22.40;;;15.20;;
57325;SDS011;43161;50.950;18.224;2023-09-08T01:19:51;24.80;;;14.90;;
57325;SDS011;43161;50.950;18.224;2023-09-08T01:22:28;24.00;;;15.30;;
57325;SDS011;43161;50.950;18.224;2023-09-08T01:27:52;24.90;;;15.60;;
57325;SDS011;43161;50.950;18.224;2023-09-08T01:30:19;23.90;;;15.30;;
57325;SDS011;43161;50.950;18.224;2023-09-08T01:32:47;24.60;;;16.10;;
57325;SDS011;43161;50.950;18.224;2023-09-08T01:35:13;24.80;;;15.60;;
57325;SDS011;43161;50.950;18.224;2023-09-08T01:37:40;22.40;;;15.30;;
57325;SDS011;43161;50.950;18.224;2023-09-08T01:40:12;23.40;;;14.90;;
57325;SDS011;43161;50.950;18.224;2023-09-08T01:42:38;25.50;;;15.60;;
57325;SDS011;43161;50.950;18.224;2023-09-08T01:45:04;26.90;;;16.00;;
57325;SDS011;43161;50.950;18.224;2023-09-08T01:47:30;23.90;;;15.20;;
57325;SDS011;43161;50.950;18.224;2023-09-08T01:49:56;23.60;;;15.80;;
57325;SDS011;43161;50.950;18.224;2023-09-08T01:52:22;25.90;;;15.60;;
57325;SDS011;43161;50.950;18.224;2023-09-08T01:54:48;27.60;;;15.80;;
57325;SDS011;43161;50.950;18.224;2023-09-08T01:57:14;25.20;;;15.00;;
57325;SDS011;43161;50.950;18.224;2023-09-08T01:59:40;23.10;;;15.10;;
57325;SDS011;43161;50.950;18.224;2023-09-08T02:02:05;23.40;;;14.30;;
57325;SDS011;43161;50.950;18.224;2023-09-08T02:04:32;22.70;;;14.30;;
57325;SDS011;43161;50.950;18.224;2023-09-08T02:06:58;26.70;;;14.40;;
57325;SDS011;43161;50.950;18.224;2023-09-08T02:09:44;24.90;;;15.50;;
57325;SDS011;43161;50.950;18.224;2023-09-08T02:12:09;23.70;;;14.70;;
57325;SDS011;43161;50.950;18.224;2023-09-08T02:14:35;24.30;;;14.70;;
57325;SDS011;43161;50.950;18.224;2023-09-08T02:17:01;23.20;;;14.90;;
57325;SDS011;43161;50.950;18.224;2023-09-08T02:19:27;24.30;;;15.10;;
57325;SDS011;43161;50.950;18.224;2023-09-08T02:21:53;22.70;;;15.90;;
57325;SDS011;43161;50.950;18.224;2023-09-08T02:24:18;24.10;;;15.40;;
57325;SDS011;43161;50.950;18.224;2023-09-08T02:26:44;24.30;;;15.00;;
57325;SDS011;43161;50.950;18.224;2023-09-08T02:29:09;24.80;;;14.90;;
57325;SDS011;43161;50.950;18.224;2023-09-08T02:31:35;25.50;;;15.40;;
57325;SDS011;43161;50.950;18.224;2023-09-08T02:34:00;23.00;;;14.70;;
57325;SDS011;43161;50.950;18.224;2023-09-08T02:36:26;23.20;;;14.40;;
57325;SDS011;43161;50.950;18.224;2023-09-08T02:38:52;22.10;;;14.40;;
57325;SDS011;43161;50.950;18.224;2023-09-08T02:41:18;21.60;;;14.80;;
57325;SDS011;43161;50.950;18.224;2023-09-08T02:43:45;21.90;;;14.40;;
57325;SDS011;43161;50.950;18.224;2023-09-08T02:46:11;23.60;;;15.30;;
57325;SDS011;43161;50.950;18.224;2023-09-08T02:48:37;24.50;;;13.90;;
57325;SDS011;43161;50.950;18.224;2023-09-08T02:51:03;24.00;;;14.40;;
57325;SDS011;43161;50.950;18.224;2023-09-08T02:53:29;26.20;;;14.50;;
57325;SDS011;43161;50.950;18.224;2023-09-08T02:55:55;22.60;;;14.70;;
57325;SDS011;43161;50.950;18.224;2023-09-08T02:58:21;21.80;;;14.30;;
57325;SDS011;43161;50.950;18.224;2023-09-08T03:00:48;23.90;;;15.20;;
57325;SDS011;43161;50.950;18.224;2023-09-08T03:03:14;21.50;;;14.40;;
57325;SDS011;43161;50.950;18.224;2023-09-08T03:05:39;23.40;;;14.10;;
57325;SDS011;43161;50.950;18.224;2023-09-08T03:08:05;22.40;;;13.80;;
57325;SDS011;43161;50.950;18.224;2023-09-08T03:10:31;24.80;;;14.90;;
57325;SDS011;43161;50.950;18.224;2023-09-08T03:12:59;21.40;;;13.90;;
57325;SDS011;43161;50.950;18.224;2023-09-08T03:15:25;21.70;;;13.50;;
57325;SDS011;43161;50.950;18.224;2023-09-08T03:17:57;23.20;;;14.50;;
57325;SDS011;43161;50.950;18.224;2023-09-08T03:20:26;23.40;;;13.70;;
57325;SDS011;43161;50.950;18.224;2023-09-08T03:22:52;22.50;;;13.30;;
57325;SDS011;43161;50.950;18.224;2023-09-08T03:25:18;23.70;;;13.10;;
57325;SDS011;43161;50.950;18.224;2023-09-08T03:27:44;21.20;;;13.10;;
57325;SDS011;43161;50.950;18.224;2023-09-08T03:30:10;24.00;;;13.60;;
57325;SDS011;43161;50.950;18.224;2023-09-08T03:32:36;21.40;;;13.60;;
57325;SDS011;43161;50.950;18.224;2023-09-08T03:35:02;20.70;;;13.10;;
57325;SDS011;43161;50.950;18.224;2023-09-08T03:37:31;21.40;;;13.10;;
57325;SDS011;43161;50.950;18.224;2023-09-08T03:39:57;20.40;;;12.60;;
57325;SDS011;43161;50.950;18.224;2023-09-08T03:42:22;20.90;;;12.90;;
57325;SDS011;43161;50.950;18.224;2023-09-08T03:44:48;21.90;;;14.40;;
57325;SDS011;43161;50.950;18.224;2023-09-08T03:47:13;23.70;;;14.30;;
57325;SDS011;43161;50.950;18.224;2023-09-08T03:49:39;21.90;;;13.30;;
57325;SDS011;43161;50.950;18.224;2023-09-08T03:52:05;22.40;;;13.00;;
57325;SDS011;43161;50.950;18.224;2023-09-08T03:54:30;21.60;;;13.60;;
57325;SDS011;43161;50.950;18.224;2023-09-08T03:56:56;23.10;;;13.20;;
57325;SDS011;43161;50.950;18.224;2023-09-08T03:59:22;22.80;;;14.00;;
57325;SDS011;43161;50.950;18.224;2023-09-08T04:01:48;22.10;;;13.00;;
57325;SDS011;43161;50.950;18.224;2023-09-08T04:04:13;23.50;;;13.90;;
57325;SDS011;43161;50.950;18.224;2023-09-08T04:06:39;22.30;;;13.80;;
57325;SDS011;43161;50.950;18.224;2023-09-08T04:09:05;25.80;;;14.00;;
57325;SDS011;43161;50.950;18.224;2023-09-08T04:11:30;24.30;;;14.40;;
57325;SDS011;43161;50.950;18.224;2023-09-08T04:13:56;22.40;;;13.10;;
57325;SDS011;43161;50.950;18.224;2023-09-08T04:16:22;22.00;;;14.30;;
57325;SDS011;43161;50.950;18.224;2023-09-08T04:18:48;24.80;;;13.30;;
57325;SDS011;43161;50.950;18.224;2023-09-08T04:21:13;23.80;;;13.70;;
57325;SDS011;43161;50.950;18.224;2023-09-08T04:23:39;21.90;;;14.30;;
57325;SDS011;43161;50.950;18.224;2023-09-08T04:26:05;23.30;;;14.00;;
57325;SDS011;43161;50.950;18.224;2023-09-08T04:28:30;23.80;;;13.70;;
57325;SDS011;43161;50.950;18.224;2023-09-08T04:30:56;22.90;;;13.80;;
57325;SDS011;43161;50.950;18.224;2023-09-08T04:33:22;21.10;;;13.10;;
57325;SDS011;43161;50.950;18.224;2023-09-08T04:35:48;22.90;;;13.70;;
57325;SDS011;43161;50.950;18.224;2023-09-08T04:38:14;24.00;;;13.90;;
57325;SDS011;43161;50.950;18.224;2023-09-08T04:40:40;23.50;;;13.90;;
57325;SDS011;43161;50.950;18.224;2023-09-08T04:43:07;22.70;;;14.50;;
57325;SDS011;43161;50.950;18.224;2023-09-08T04:45:33;20.80;;;13.30;;
57325;SDS011;43161;50.950;18.224;2023-09-08T04:47:58;23.10;;;14.20;;
57325;SDS011;43161;50.950;18.224;2023-09-08T04:50:24;23.00;;;13.90;;
57325;SDS011;43161;50.950;18.224;2023-09-08T04:52:50;25.00;;;14.00;;
57325;SDS011;43161;50.950;18.224;2023-09-08T04:55:16;22.80;;;14.50;;
57325;SDS011;43161;50.950;18.224;2023-09-08T04:57:42;25.10;;;14.80;;
57325;SDS011;43161;50.950;18.224;2023-09-08T05:00:08;22.60;;;13.30;;
57325;SDS011;43161;50.950;18.224;2023-09-08T05:02:34;22.10;;;13.60;;
57325;SDS011;43161;50.950;18.224;2023-09-08T05:05:00;23.20;;;13.40;;
57325;SDS011;43161;50.950;18.224;2023-09-08T05:07:25;23.00;;;13.40;;
57325;SDS011;43161;50.950;18.224;2023-09-08T05:09:51;27.50;;;13.80;;
57325;SDS011;43161;50.950;18.224;2023-09-08T05:12:16;22.60;;;13.80;;
57325;SDS011;43161;50.950;18.224;2023-09-08T05:14:42;23.90;;;15.10;;
57325;SDS011;43161;50.950;18.224;2023-09-08T05:17:08;23.00;;;14.00;;
57325;SDS011;43161;50.950;18.224;2023-09-08T05:19:34;23.20;;;14.50;;
57325;SDS011;43161;50.950;18.224;2023-09-08T05:21:59;21.60;;;13.70;;
57325;SDS011;43161;50.950;18.224;2023-09-08T05:24:25;23.90;;;13.50;;
57325;SDS011;43161;50.950;18.224;2023-09-08T05:26:52;22.20;;;14.00;;
57325;SDS011;43161;50.950;18.224;2023-09-08T05:29:18;23.30;;;14.40;;
57325;SDS011;43161;50.950;18.224;2023-09-08T05:31:43;22.10;;;13.90;;
57325;SDS011;43161;50.950;18.224;2023-09-08T05:34:09;22.70;;;14.00;;
57325;SDS011;43161;50.950;18.224;2023-09-08T05:36:35;23.00;;;14.90;;
57325;SDS011;43161;50.950;18.224;2023-09-08T05:39:03;22.40;;;14.90;;
57325;SDS011;43161;50.950;18.224;2023-09-08T05:41:30;20.90;;;13.50;;
57325;SDS011;43161;50.950;18.224;2023-09-08T05:43:57;22.60;;;14.60;;
57325;SDS011;43161;50.950;18.224;2023-09-08T05:46:23;21.80;;;13.60;;
57325;SDS011;43161;50.950;18.224;2023-09-08T05:48:48;23.50;;;13.90;;
57325;SDS011;43161;50.950;18.224;2023-09-08T05:51:14;21.00;;;13.20;;
57325;SDS011;43161;50.950;18.224;2023-09-08T05:53:40;25.40;;;13.90;;
57325;SDS011;43161;50.950;18.224;2023-09-08T05:56:06;22.80;;;13.70;;
57325;SDS011;43161;50.950;18.224;2023-09-08T05:58:32;22.30;;;13.90;;
57325;SDS011;43161;50.950;18.224;2023-09-08T06:01:00;21.00;;;12.60;;
57325;SDS011;43161;50.950;18.224;2023-09-08T06:03:27;23.40;;;12.60;;
57325;SDS011;43161;50.950;18.224;2023-09-08T06:05:53;21.20;;;12.60;;
57325;SDS011;43161;50.950;18.224;2023-09-08T06:08:19;19.60;;;12.50;;
57325;SDS011;43161;50.950;18.224;2023-09-08T06:10:44;22.40;;;12.20;;
57325;SDS011;43161;50.950;18.224;2023-09-08T06:13:10;21.30;;;12.10;;
57325;SDS011;43161;50.950;18.224;2023-09-08T06:15:35;21.70;;;11.30;;
57325;SDS011;43161;50.950;18.224;2023-09-08T06:18:02;19.80;;;11.50;;
57325;SDS011;43161;50.950;18.224;2023-09-08T06:20:28;17.90;;;10.50;;
57325;SDS011;43161;50.950;18.224;2023-09-08T06:22:53;20.20;;;11.30;;
57325;SDS011;43161;50.950;18.224;2023-09-08T06:25:19;20.20;;;11.50;;
57325;SDS011;43161;50.950;18.224;2023-09-08T06:27:44;18.30;;;10.60;;
57325;SDS011;43161;50.950;18.224;2023-09-08T06:30:10;19.70;;;11.40;;
57325;SDS011;43161;50.950;18.224;2023-09-08T06:32:39;17.20;;;10.60;;
57325;SDS011;43161;50.950;18.224;2023-09-08T06:35:04;19.20;;;10.60;;
57325;SDS011;43161;50.950;18.224;2023-09-08T06:37:34;19.10;;;10.20;;
57325;SDS011;43161;50.950;18.224;2023-09-08T06:40:01;18.20;;;9.90;;
57325;SDS011;43161;50.950;18.224;2023-09-08T06:42:27;17.90;;;10.40;;
57325;SDS011;43161;50.950;18.224;2023-09-08T06:44:53;19.90;;;9.90;;
57325;SDS011;43161;50.950;18.224;2023-09-08T06:47:19;16.90;;;10.10;;
57325;SDS011;43161;50.950;18.224;2023-09-08T06:49:46;22.50;;;11.10;;
57325;SDS011;43161;50.950;18.224;2023-09-08T06:52:12;18.30;;;10.00;;
57325;SDS011;43161;50.950;18.224;2023-09-08T06:54:38;18.60;;;10.20;;
57325;SDS011;43161;50.950;18.224;2023-09-08T06:57:04;20.60;;;10.30;;
57325;SDS011;43161;50.950;18.224;2023-09-08T06:59:29;22.00;;;10.60;;
57325;SDS011;43161;50.950;18.224;2023-09-08T07:01:55;17.30;;;10.50;;
57325;SDS011;43161;50.950;18.224;2023-09-08T07:04:21;18.10;;;10.00;;
57325;SDS011;43161;50.950;18.224;2023-09-08T07:06:46;17.50;;;10.80;;
57325;SDS011;43161;50.950;18.224;2023-09-08T07:09:12;21.20;;;10.50;;
57325;SDS011;43161;50.950;18.224;2023-09-08T07:11:39;18.50;;;10.00;;
57325;SDS011;43161;50.950;18.224;2023-09-08T07:14:05;20.70;;;10.30;;
57325;SDS011;43161;50.950;18.224;2023-09-08T07:16:31;19.80;;;9.50;;
57325;SDS011;43161;50.950;18.224;2023-09-08T07:18:56;19.70;;;9.90;;
57325;SDS011;43161;50.950;18.224;2023-09-08T07:21:22;17.60;;;9.50;;
57325;SDS011;43161;50.950;18.224;2023-09-08T07:23:47;17.80;;;10.00;;
57325;SDS011;43161;50.950;18.224;2023-09-08T07:26:13;19.50;;;9.00;;
57325;SDS011;43161;50.950;18.224;2023-09-08T07:28:39;17.60;;;9.00;;
57325;SDS011;43161;50.950;18.224;2023-09-08T07:31:05;17.80;;;9.40;;
57325;SDS011;43161;50.950;18.224;2023-09-08T07:33:31;18.30;;;9.50;;
57325;SDS011;43161;50.950;18.224;2023-09-08T07:35:57;18.00;;;8.90;;
57325;SDS011;43161;50.950;18.224;2023-09-08T07:38:23;16.20;;;9.50;;
57325;SDS011;43161;50.950;18.224;2023-09-08T07:40:49;15.30;;;8.70;;
57325;SDS011;43161;50.950;18.224;2023-09-08T07:43:15;17.30;;;8.30;;
57325;SDS011;43161;50.950;18.224;2023-09-08T07:45:40;18.00;;;8.80;;
57325;SDS011;43161;50.950;18.224;2023-09-08T07:48:06;21.30;;;9.40;;
57325;SDS011;43161;50.950;18.224;2023-09-08T07:50:32;15.80;;;8.50;;
57325;SDS011;43161;50.950;18.224;2023-09-08T07:52:57;16.60;;;8.00;;
57325;SDS011;43161;50.950;18.224;2023-09-08T07:55:23;19.60;;;9.10;;
57325;SDS011;43161;50.950;18.224;2023-09-08T07:57:52;15.60;;;8.30;;
57325;SDS011;43161;50.950;18.224;2023-09-08T08:00:18;15.30;;;7.80;;
57325;SDS011;43161;50.950;18.224;2023-09-08T08:02:48;14.90;;;8.20;;
57325;SDS011;43161;50.950;18.224;2023-09-08T08:05:15;14.60;;;8.20;;
57325;SDS011;43161;50.950;18.224;2023-09-08T08:07:41;17.80;;;8.20;;
57325;SDS011;43161;50.950;18.224;2023-09-08T08:10:08;14.30;;;7.20;;
57325;SDS011;43161;50.950;18.224;2023-09-08T08:12:35;15.00;;;7.30;;
57325;SDS011;43161;50.950;18.224;2023-09-08T08:15:01;15.50;;;7.80;;
57325;SDS011;43161;50.950;18.224;2023-09-08T08:17:27;16.60;;;6.80;;
57325;SDS011;43161;50.950;18.224;2023-09-08T08:19:54;16.30;;;6.90;;
57325;SDS011;43161;50.950;18.224;2023-09-08T08:22:21;15.70;;;6.50;;
57325;SDS011;43161;50.950;18.224;2023-09-08T08:24:47;15.40;;;7.00;;
57325;SDS011;43161;50.950;18.224;2023-09-08T08:27:12;14.00;;;6.60;;
57325;SDS011;43161;50.950;18.224;2023-09-08T08:29:38;13.60;;;6.80;;
57325;SDS011;43161;50.950;18.224;2023-09-08T08:32:05;15.30;;;7.20;;
57325;SDS011;43161;50.950;18.224;2023-09-08T08:34:30;15.70;;;6.80;;
57325;SDS011;43161;50.950;18.224;2023-09-08T08:36:56;14.20;;;7.00;;
57325;SDS011;43161;50.950;18.224;2023-09-08T08:39:21;16.30;;;6.80;;
57325;SDS011;43161;50.950;18.224;2023-09-08T08:41:47;14.50;;;6.40;;
57325;SDS011;43161;50.950;18.224;2023-09-08T08:44:13;14.10;;;7.40;;
57325;SDS011;43161;50.950;18.224;2023-09-08T08:46:41;14.60;;;6.20;;
57325;SDS011;43161;50.950;18.224;2023-09-08T08:49:07;12.40;;;6.30;;
57325;SDS011;43161;50.950;18.224;2023-09-08T08:51:34;12.60;;;6.70;;
57325;SDS011;43161;50.950;18.224;2023-09-08T08:54:00;14.70;;;6.30;;
57325;SDS011;43161;50.950;18.224;2023-09-08T08:56:30;12.10;;;6.30;;
57325;SDS011;43161;50.950;18.224;2023-09-08T08:59:00;14.00;;;6.80;;
57325;SDS011;43161;50.950;18.224;2023-09-08T09:01:26;17.60;;;6.70;;
57325;SDS011;43161;50.950;18.224;2023-09-08T09:03:53;16.50;;;6.50;;
57325;SDS011;43161;50.950;18.224;2023-09-08T09:06:19;13.00;;;5.90;;
57325;SDS011;43161;50.950;18.224;2023-09-08T09:08:45;12.80;;;6.20;;
57325;SDS011;43161;50.950;18.224;2023-09-08T09:11:12;13.10;;;5.80;;
57325;SDS011;43161;50.950;18.224;2023-09-08T09:13:38;12.30;;;6.00;;
57325;SDS011;43161;50.950;18.224;2023-09-08T09:16:03;14.10;;;5.60;;
57325;SDS011;43161;50.950;18.224;2023-09-08T09:18:33;12.00;;;5.60;;
57325;SDS011;43161;50.950;18.224;2023-09-08T09:20:59;13.90;;;6.40;;
57325;SDS011;43161;50.950;18.224;2023-09-08T09:23:30;17.10;;;5.80;;
57325;SDS011;43161;50.950;18.224;2023-09-08T09:26:00;13.00;;;5.90;;
57325;SDS011;43161;50.950;18.224;2023-09-08T09:28:28;14.60;;;6.00;;
57325;SDS011;43161;50.950;18.224;2023-09-08T09:30:54;13.10;;;6.00;;
57325;SDS011;43161;50.950;18.224;2023-09-08T09:33:20;11.80;;;5.40;;
57325;SDS011;43161;50.950;18.224;2023-09-08T09:35:48;13.80;;;5.90;;
57325;SDS011;43161;50.950;18.224;2023-09-08T09:38:18;13.40;;;5.60;;
57325;SDS011;43161;50.950;18.224;2023-09-08T09:40:45;13.90;;;5.50;;
57325;SDS011;43161;50.950;18.224;2023-09-08T09:43:11;14.40;;;5.70;;
57325;SDS011;43161;50.950;18.224;2023-09-08T09:45:38;14.30;;;5.90;;
57325;SDS011;43161;50.950;18.224;2023-09-08T09:48:05;15.60;;;6.30;;
57325;SDS011;43161;50.950;18.224;2023-09-08T09:50:32;10.60;;;4.80;;
57325;SDS011;43161;50.950;18.224;2023-09-08T09:53:07;13.80;;;5.60;;
57325;SDS011;43161;50.950;18.224;2023-09-08T09:55:33;14.00;;;5.70;;
57325;SDS011;43161;50.950;18.224;2023-09-08T09:58:01;10.60;;;5.30;;
57325;SDS011;43161;50.950;18.224;2023-09-08T10:00:29;10.30;;;4.60;;
57325;SDS011;43161;50.950;18.224;2023-09-08T10:02:55;11.50;;;4.70;;
57325;SDS011;43161;50.950;18.224;2023-09-08T10:05:23;12.00;;;4.70;;
57325;SDS011;43161;50.950;18.224;2023-09-08T10:07:50;11.50;;;4.90;;
57325;SDS011;43161;50.950;18.224;2023-09-08T10:10:17;10.20;;;4.50;;
57325;SDS011;43161;50.950;18.224;2023-09-08T10:12:43;13.60;;;4.80;;
57325;SDS011;43161;50.950;18.224;2023-09-08T10:15:12;14.20;;;5.00;;
57325;SDS011;43161;50.950;18.224;2023-09-08T10:17:41;12.50;;;5.00;;
57325;SDS011;43161;50.950;18.224;2023-09-08T10:20:09;11.70;;;4.70;;
57325;SDS011;43161;50.950;18.224;2023-09-08T10:22:42;12.70;;;5.00;;
57325;SDS011;43161;50.950;18.224;2023-09-08T10:25:08;13.60;;;4.90;;
57325;SDS011;43161;50.950;18.224;2023-09-08T10:27:35;13.70;;;4.60;;
57325;SDS011;43161;50.950;18.224;2023-09-08T10:30:02;13.30;;;4.90;;
57325;SDS011;43161;50.950;18.224;2023-09-08T10:32:30;11.40;;;4.80;;
57325;SDS011;43161;50.950;18.224;2023-09-08T10:35:01;10.30;;;4.70;;
57325;SDS011;43161;50.950;18.224;2023-09-08T10:37:28;13.40;;;4.80;;
57325;SDS011;43161;50.950;18.224;2023-09-08T10:39:55;14.80;;;5.10;;
57325;SDS011;43161;50.950;18.224;2023-09-08T10:42:21;12.10;;;5.00;;
57325;SDS011;43161;50.950;18.224;2023-09-08T10:47:41;12.40;;;5.30;;
57325;SDS011;43161;50.950;18.224;2023-09-08T10:55:48;10.60;;;4.40;;
57325;SDS011;43161;50.950;18.224;2023-09-08T10:58:18;10.70;;;4.80;;
57325;SDS011;43161;50.950;18.224;2023-09-08T11:00:46;10.80;;;4.60;;
57325;SDS011;43161;50.950;18.224;2023-09-08T11:03:13;11.20;;;4.80;;
57325;SDS011;43161;50.950;18.224;2023-09-08T11:05:41;11.00;;;4.30;;
57325;SDS011;43161;50.950;18.224;2023-09-08T11:08:06;10.90;;;4.70;;
57325;SDS011;43161;50.950;18.224;2023-09-08T11:10:32;10.70;;;4.30;;
57325;SDS011;43161;50.950;18.224;2023-09-08T11:12:57;9.40;;;4.40;;
57325;SDS011;43161;50.950;18.224;2023-09-08T11:15:25;11.30;;;4.60;;
57325;SDS011;43161;50.950;18.224;2023-09-08T11:17:50;9.30;;;3.80;;
57325;SDS011;43161;50.950;18.224;2023-09-08T11:20:25;11.30;;;4.30;;
57325;SDS011;43161;50.950;18.224;2023-09-08T11:22:51;9.80;;;4.40;;
57325;SDS011;43161;50.950;18.224;2023-09-08T11:25:17;16.50;;;4.50;;
57325;SDS011;43161;50.950;18.224;2023-09-08T11:27:42;13.80;;;5.30;;
57325;SDS011;43161;50.950;18.224;2023-09-08T11:30:10;12.70;;;6.60;;
57325;SDS011;43161;50.950;18.224;2023-09-08T11:32:37;10.60;;;4.50;;
57325;SDS011;43161;50.950;18.224;2023-09-08T11:35:07;11.50;;;4.60;;
57325;SDS011;43161;50.950;18.224;2023-09-08T11:37:41;10.80;;;4.70;;
57325;SDS011;43161;50.950;18.224;2023-09-08T11:40:08;11.40;;;4.60;;
57325;SDS011;43161;50.950;18.224;2023-09-08T11:42:40;12.50;;;4.60;;
57325;SDS011;43161;50.950;18.224;2023-09-08T11:45:15;11.50;;;4.80;;
57325;SDS011;43161;50.950;18.224;2023-09-08T11:47:48;12.20;;;4.70;;
57325;SDS011;43161;50.950;18.224;2023-09-08T11:50:18;10.40;;;4.50;;
57325;SDS011;43161;50.950;18.224;2023-09-08T11:52:44;13.70;;;4.40;;
57325;SDS011;43161;50.950;18.224;2023-09-08T11:55:11;10.00;;;4.30;;
57325;SDS011;43161;50.950;18.224;2023-09-08T11:57:38;11.50;;;4.60;;
57325;SDS011;43161;50.950;18.224;2023-09-08T12:00:05;9.40;;;4.30;;
57325;SDS011;43161;50.950;18.224;2023-09-08T12:02:35;10.70;;;4.10;;
57325;SDS011;43161;50.950;18.224;2023-09-08T12:05:03;9.50;;;4.40;;
57325;SDS011;43161;50.950;18.224;2023-09-08T12:07:29;12.00;;;4.30;;
57325;SDS011;43161;50.950;18.224;2023-09-08T12:09:54;14.00;;;4.50;;
57325;SDS011;43161;50.950;18.224;2023-09-08T12:12:20;10.80;;;3.90;;
57325;SDS011;43161;50.950;18.224;2023-09-08T12:14:46;11.30;;;4.40;;
57325;SDS011;43161;50.950;18.224;2023-09-08T12:17:11;14.00;;;3.90;;
57325;SDS011;43161;50.950;18.224;2023-09-08T12:19:42;11.40;;;4.60;;
57325;SDS011;43161;50.950;18.224;2023-09-08T12:22:07;9.80;;;4.30;;
57325;SDS011;43161;50.950;18.224;2023-09-08T12:27:18;10.20;;;4.40;;
57325;SDS011;43161;50.950;18.224;2023-09-08T12:29:51;11.40;;;4.10;;
57325;SDS011;43161;50.950;18.224;2023-09-08T12:32:18;10.60;;;4.30;;
57325;SDS011;43161;50.950;18.224;2023-09-08T12:34:44;10.60;;;4.50;;
57325;SDS011;43161;50.950;18.224;2023-09-08T12:37:10;10.80;;;4.10;;
57325;SDS011;43161;50.950;18.224;2023-09-08T12:39:40;12.20;;;4.10;;
57325;SDS011;43161;50.950;18.224;2023-09-08T12:42:05;9.80;;;3.80;;
57325;SDS011;43161;50.950;18.224;2023-09-08T12:44:31;11.70;;;3.90;;
57325;SDS011;43161;50.950;18.224;2023-09-08T12:46:56;10.30;;;3.80;;
57325;SDS011;43161;50.950;18.224;2023-09-08T12:49:22;9.30;;;4.20;;
57325;SDS011;43161;50.950;18.224;2023-09-08T12:51:48;9.60;;;4.20;;
57325;SDS011;43161;50.950;18.224;2023-09-08T12:54:13;10.80;;;3.90;;
57325;SDS011;43161;50.950;18.224;2023-09-08T12:56:39;11.00;;;4.30;;
57325;SDS011;43161;50.950;18.224;2023-09-08T12:59:04;8.50;;;3.70;;
57325;SDS011;43161;50.950;18.224;2023-09-08T13:01:30;12.70;;;4.60;;
57325;SDS011;43161;50.950;18.224;2023-09-08T13:03:56;11.30;;;4.20;;
57325;SDS011;43161;50.950;18.224;2023-09-08T13:06:21;9.80;;;4.20;;
57325;SDS011;43161;50.950;18.224;2023-09-08T13:08:47;11.70;;;4.40;;
57325;SDS011;43161;50.950;18.224;2023-09-08T13:11:12;10.70;;;3.90;;
57325;SDS011;43161;50.950;18.224;2023-09-08T13:13:38;10.90;;;4.50;;
57325;SDS011;43161;50.950;18.224;2023-09-08T13:16:03;10.40;;;4.20;;
57325;SDS011;43161;50.950;18.224;2023-09-08T13:18:29;11.60;;;4.50;;
57325;SDS011;43161;50.950;18.224;2023-09-08T13:21:01;11.30;;;4.70;;
57325;SDS011;43161;50.950;18.224;2023-09-08T13:23:27;10.90;;;4.60;;
57325;SDS011;43161;50.950;18.224;2023-09-08T13:25:52;11.00;;;4.40;;
57325;SDS011;43161;50.950;18.224;2023-09-08T13:28:18;10.30;;;4.80;;
57325;SDS011;43161;50.950;18.224;2023-09-08T13:30:44;10.00;;;4.20;;
57325;SDS011;43161;50.950;18.224;2023-09-08T13:33:09;9.90;;;4.30;;
57325;SDS011;43161;50.950;18.224;2023-09-08T13:35:35;11.30;;;4.80;;
57325;SDS011;43161;50.950;18.224;2023-09-08T13:38:00;13.90;;;4.40;;
57325;SDS011;43161;50.950;18.224;2023-09-08T13:40:28;12.20;;;4.30;;
57325;SDS011;43161;50.950;18.224;2023-09-08T13:42:54;10.60;;;4.60;;
57325;SDS011;43161;50.950;18.224;2023-09-08T13:45:19;10.90;;;4.10;;
57325;SDS011;43161;50.950;18.224;2023-09-08T13:47:45;10.40;;;4.50;;
57325;SDS011;43161;50.950;18.224;2023-09-08T13:50:11;12.90;;;4.50;;
57325;SDS011;43161;50.950;18.224;2023-09-08T13:52:37;10.30;;;4.20;;
57325;SDS011;43161;50.950;18.224;2023-09-08T13:55:07;11.10;;;4.50;;
57325;SDS011;43161;50.950;18.224;2023-09-08T13:57:34;10.20;;;4.10;;
57325;SDS011;43161;50.950;18.224;2023-09-08T13:59:59;9.30;;;3.90;;
57325;SDS011;43161;50.950;18.224;2023-09-08T14:02:25;11.70;;;4.40;;
57325;SDS011;43161;50.950;18.224;2023-09-08T14:04:51;10.70;;;4.30;;
57325;SDS011;43161;50.950;18.224;2023-09-08T14:07:16;11.40;;;4.50;;
57325;SDS011;43161;50.950;18.224;2023-09-08T14:09:42;9.20;;;4.00;;
57325;SDS011;43161;50.950;18.224;2023-09-08T14:12:07;10.70;;;4.30;;
57325;SDS011;43161;50.950;18.224;2023-09-08T14:14:33;10.80;;;3.70;;
57325;SDS011;43161;50.950;18.224;2023-09-08T14:16:59;10.20;;;4.00;;
57325;SDS011;43161;50.950;18.224;2023-09-08T14:19:24;9.00;;;3.90;;
57325;SDS011;43161;50.950;18.224;2023-09-08T14:21:50;11.70;;;4.30;;
57325;SDS011;43161;50.950;18.224;2023-09-08T14:24:16;9.00;;;3.80;;
57325;SDS011;43161;50.950;18.224;2023-09-08T14:26:42;11.10;;;4.30;;